createdAt,value
2022-10-04T00:00:36.935Z,90.76
2022-10-04T00:03:26.896Z,90.96
2022-10-04T00:05:56.507Z,91.07
2022-10-04T00:08:27.408Z,90.58
2022-10-04T00:11:13.241Z,91.91
2022-10-04T00:13:40.890Z,91.75
2022-10-04T00:16:08.988Z,92.40
2022-10-04T00:18:41.333Z,92.25
2022-10-04T00:21:09.202Z,92.03
2022-10-04T00:23:37.165Z,92.35
2022-10-04T00:26:08.080Z,92.23
2022-10-04T00:28:36.003Z,92.53
2022-10-04T00:31:20.916Z,92.11
2022-10-04T00:33:50.631Z,92.65
2022-10-04T00:36:24.242Z,92.74
2022-10-04T00:39:04.623Z,92.81
2022-10-04T00:41:47.407Z,93.09
2022-10-04T00:44:28.466Z,93.51
2022-10-04T00:46:57.207Z,93.09
2022-10-04T00:49:26.884Z,93.70
2022-10-04T00:52:15.895Z,93.25
2022-10-04T00:55:05.415Z,94.31
2022-10-04T00:57:38.386Z,94.36
2022-10-04T01:00:17.821Z,95.82
2022-10-04T01:03:14.971Z,95.78
2022-10-04T01:05:44.800Z,97.01
2022-10-04T01:08:23.358Z,97.28
2022-10-04T01:10:52.396Z,97.23
2022-10-04T01:13:23.563Z,97.52
2022-10-04T01:16:02.948Z,96.91
2022-10-04T01:18:34.525Z,97.38
2022-10-04T01:21:09.250Z,97.31
2022-10-04T01:23:43.601Z,97.84
2022-10-04T01:26:26.817Z,97.94
2022-10-04T01:28:56.297Z,98.92
2022-10-04T01:31:24.026Z,97.74
2022-10-04T01:33:51.920Z,97.41
2022-10-04T01:36:20.478Z,97.66
2022-10-04T01:38:48.368Z,98.25
2022-10-04T01:41:18.304Z,99.03
2022-10-04T01:43:47.914Z,100.00
2022-10-04T01:46:19.573Z,100.00
2022-10-04T01:48:48.248Z,99.72
2022-10-04T01:51:21.237Z,99.22
2022-10-04T01:53:54.020Z,99.06
2022-10-04T01:56:25.968Z,98.85
2022-10-04T01:58:56.300Z,99.15
2022-10-04T02:01:44.240Z,98.47
2022-10-04T02:04:22.038Z,97.68
2022-10-04T02:06:56.461Z,98.34
2022-10-04T02:09:26.823Z,98.71
2022-10-04T02:11:58.617Z,97.94
2022-10-04T02:14:28.325Z,98.09
2022-10-04T02:16:56.416Z,98.23
2022-10-04T02:19:27.660Z,98.01
2022-10-04T02:21:55.360Z,99.27
2022-10-04T02:24:23.061Z,98.86
2022-10-04T02:26:51.955Z,98.65
2022-10-04T02:29:22.579Z,98.44
2022-10-04T02:32:08.692Z,98.01
2022-10-04T02:34:36.766Z,98.49
2022-10-04T02:37:04.815Z,98.61
2022-10-04T02:39:34.329Z,99.91
2022-10-04T02:42:04.402Z,99.42
2022-10-04T02:44:41.269Z,99.24
2022-10-04T02:47:11.758Z,98.82
2022-10-04T02:49:53.346Z,98.18
2022-10-04T02:52:37.293Z,98.34
2022-10-04T02:55:11.075Z,98.46
2022-10-04T02:57:41.864Z,99.17
2022-10-04T03:00:12.554Z,99.53
2022-10-04T03:02:41.679Z,99.13
2022-10-04T03:05:11.240Z,99.32
2022-10-04T03:07:38.966Z,100.00
2022-10-04T03:10:12.195Z,100.00
2022-10-04T03:12:40.280Z,100.00
2022-10-04T03:15:11.932Z,100.00
2022-10-04T03:17:41.954Z,100.00
2022-10-04T03:20:11.336Z,100.00
2022-10-04T03:22:42.580Z,100.00
2022-10-04T03:25:29.796Z,100.00
2022-10-04T03:28:00.315Z,100.00
2022-10-04T03:30:28.047Z,100.00
2022-10-04T03:32:56.872Z,100.00
2022-10-04T03:35:38.117Z,100.00
2022-10-04T03:38:07.042Z,100.00
2022-10-04T03:40:34.825Z,100.00
2022-10-04T03:43:02.472Z,100.00
2022-10-04T03:45:30.098Z,100.00
2022-10-04T03:48:01.387Z,100.00
2022-10-04T03:50:30.025Z,100.00
2022-10-04T03:53:06.133Z,100.00
2022-10-04T03:55:36.048Z,100.00
2022-10-04T03:58:06.967Z,100.00
2022-10-04T04:00:37.158Z,100.00
2022-10-04T04:03:06.310Z,100.00
2022-10-04T04:05:44.921Z,100.00
2022-10-04T04:08:38.628Z,100.00
2022-10-04T04:11:07.376Z,100.00
2022-10-04T04:13:46.710Z,100.00
2022-10-04T04:16:15.018Z,100.00
2022-10-04T04:18:43.953Z,100.00
2022-10-04T04:21:14.394Z,100.00
2022-10-04T04:23:43.785Z,100.00
2022-10-04T04:26:17.922Z,100.00
2022-10-04T04:28:49.270Z,99.91
2022-10-04T04:31:21.301Z,99.52
2022-10-04T04:34:00.817Z,99.14
2022-10-04T04:36:30.776Z,98.65
2022-10-04T04:39:34.586Z,98.32
2022-10-04T04:42:12.684Z,98.17
2022-10-04T04:44:50.085Z,97.72
2022-10-04T04:47:36.136Z,97.51
2022-10-04T04:50:06.192Z,97.41
2022-10-04T04:52:34.034Z,96.68
2022-10-04T04:55:01.732Z,96.29
2022-10-04T04:57:29.679Z,95.44
2022-10-04T04:59:59.045Z,95.01
2022-10-04T05:02:35.245Z,94.45
2022-10-04T05:05:22.234Z,93.78
2022-10-04T05:07:50.674Z,93.38
2022-10-04T05:10:32.425Z,91.58
2022-10-04T05:13:01.549Z,91.60
2022-10-04T05:15:33.616Z,91.03
2022-10-04T05:18:02.577Z,89.58
2022-10-04T05:20:31.670Z,89.60
2022-10-04T05:22:59.328Z,88.92
2022-10-04T05:25:32.524Z,87.73
2022-10-04T05:28:00.239Z,88.03
2022-10-04T05:30:48.943Z,87.30
2022-10-04T05:33:22.822Z,87.26
2022-10-04T05:36:12.219Z,87.41
2022-10-04T05:38:42.233Z,87.12
2022-10-04T05:41:22.585Z,86.77
2022-10-04T05:43:50.553Z,85.18
2022-10-04T05:46:19.424Z,84.13
2022-10-04T05:48:49.541Z,83.85
2022-10-04T05:51:32.252Z,83.77
2022-10-04T05:54:03.086Z,84.59
2022-10-04T05:56:30.758Z,84.61
2022-10-04T05:59:02.213Z,82.07
2022-10-04T06:02:09.238Z,81.88
2022-10-04T06:05:00.525Z,81.11
2022-10-04T06:07:34.108Z,81.47
2022-10-04T06:10:39.453Z,81.29
2022-10-04T06:13:41.420Z,81.77
2022-10-04T06:16:12.429Z,80.71
2022-10-04T06:19:09.183Z,80.94
2022-10-04T06:21:40.424Z,81.37
2022-10-04T06:24:11.006Z,81.22
2022-10-04T06:26:44.579Z,81.31
2022-10-04T06:29:18.035Z,80.90
2022-10-04T06:32:26.784Z,79.56
2022-10-04T06:35:14.314Z,79.53
2022-10-04T06:38:23.737Z,80.74
2022-10-04T06:41:09.136Z,80.41
2022-10-04T06:43:42.436Z,79.71
2022-10-04T06:46:31.474Z,78.89
2022-10-04T06:49:11.807Z,78.72
2022-10-04T06:52:03.978Z,77.58
2022-10-04T06:54:40.776Z,77.47
2022-10-04T06:57:31.824Z,76.53
2022-10-04T07:00:19.484Z,77.14
2022-10-04T07:03:01.612Z,76.00
2022-10-04T07:05:46.243Z,77.43
2022-10-04T07:08:34.222Z,77.81
2022-10-04T07:11:14.164Z,77.15
2022-10-04T07:14:04.620Z,75.17
2022-10-04T07:17:01.091Z,74.58
2022-10-04T07:19:33.850Z,75.20
2022-10-04T07:22:07.091Z,74.50
2022-10-04T07:24:43.483Z,74.44
2022-10-04T07:27:14.434Z,73.56
2022-10-04T07:29:42.928Z,74.00
2022-10-04T07:32:38.889Z,73.69
2022-10-04T07:35:17.047Z,73.66
2022-10-04T07:38:02.187Z,73.69
2022-10-04T07:40:41.388Z,72.90
2022-10-04T07:43:23.232Z,72.66
2022-10-04T07:45:51.755Z,73.27
2022-10-04T07:48:23.566Z,72.64
2022-10-04T07:51:24.717Z,72.48
2022-10-04T07:54:21.791Z,72.22
2022-10-04T07:57:04.331Z,71.43
2022-10-04T07:59:44.238Z,71.58
2022-10-04T08:02:46.653Z,70.33
2022-10-04T08:05:32.726Z,68.87
2022-10-04T08:08:22.390Z,68.29
2022-10-04T08:11:17.551Z,68.54
2022-10-04T08:14:20.580Z,65.19
2022-10-04T08:16:51.409Z,66.15
2022-10-04T08:19:57.889Z,65.80
2022-10-04T08:22:55.511Z,66.47
2022-10-04T08:25:38.056Z,65.80
2022-10-04T08:28:39.663Z,64.82
2022-10-04T08:31:29.829Z,65.51
2022-10-04T08:34:13.086Z,66.13
2022-10-04T08:37:03.338Z,65.42
2022-10-04T08:39:48.989Z,64.81
2022-10-04T08:42:29.942Z,64.31
2022-10-04T08:45:35.004Z,66.02
2022-10-04T08:48:31.220Z,61.85
2022-10-04T08:51:20.465Z,61.97
2022-10-04T08:54:04.146Z,60.01
2022-10-04T08:57:11.194Z,61.06
2022-10-04T08:59:58.132Z,60.47
2022-10-04T09:02:37.979Z,58.29
2022-10-04T09:05:39.244Z,58.81
2022-10-04T09:08:34.884Z,59.82
2022-10-04T09:11:07.029Z,58.46
2022-10-04T09:13:38.768Z,59.47
2022-10-04T09:16:15.850Z,59.44
2022-10-04T09:18:51.404Z,58.72
2022-10-04T09:21:29.174Z,57.15
2022-10-04T09:23:56.748Z,54.50
2022-10-04T09:26:36.388Z,54.59
2022-10-04T09:29:22.348Z,53.22
2022-10-04T09:32:02.029Z,53.96
2022-10-04T09:34:51.804Z,53.27
2022-10-04T09:37:37.602Z,51.79
2022-10-04T09:40:34.840Z,52.47
2022-10-04T09:43:06.172Z,52.41
2022-10-04T09:46:03.895Z,51.23
2022-10-04T09:48:53.757Z,51.03
2022-10-04T09:51:23.424Z,51.89
2022-10-04T09:54:45.826Z,52.88
2022-10-04T09:57:45.889Z,52.38
2022-10-04T10:01:05.687Z,53.07
2022-10-04T10:04:10.969Z,52.70
2022-10-04T10:06:46.499Z,53.51
2022-10-04T10:09:47.507Z,53.84
2022-10-04T10:13:14.988Z,53.02
2022-10-04T10:22:48.382Z,52.18
2022-10-04T10:25:52.675Z,52.29
2022-10-04T10:28:26.262Z,50.93
2022-10-04T10:31:18.670Z,51.08
2022-10-04T10:34:11.639Z,49.93
2022-10-04T10:36:54.330Z,50.44
2022-10-04T10:39:52.196Z,52.08
2022-10-04T10:42:38.053Z,51.23
2022-10-04T10:45:05.746Z,51.47
2022-10-04T10:47:42.577Z,53.12
2022-10-04T10:50:28.027Z,52.29
2022-10-04T10:53:25.356Z,52.43
2022-10-04T10:56:13.529Z,52.15
2022-10-04T10:58:54.391Z,52.37
2022-10-04T11:01:25.034Z,51.25
2022-10-04T11:04:26.545Z,52.42
2022-10-04T11:07:18.633Z,51.14
2022-10-04T11:10:21.158Z,52.15
2022-10-04T11:13:07.628Z,51.32
2022-10-04T11:16:07.950Z,49.84
2022-10-04T11:18:57.946Z,50.62
2022-10-04T11:22:07.582Z,51.53
2022-10-04T11:24:43.479Z,51.45
2022-10-04T11:27:19.524Z,51.66
2022-10-04T11:30:26.461Z,50.83
2022-10-04T11:33:19.185Z,51.01
2022-10-04T11:35:58.640Z,52.42
2022-10-04T11:38:51.359Z,51.17
2022-10-04T11:41:23.424Z,50.54
2022-10-04T11:44:16.005Z,50.04
2022-10-04T11:47:01.471Z,50.50
2022-10-04T11:49:44.238Z,50.74
2022-10-04T11:52:37.261Z,50.01
2022-10-04T11:55:10.914Z,51.22
2022-10-04T11:57:44.431Z,51.49
2022-10-04T12:00:20.482Z,50.97
2022-10-04T12:03:14.009Z,52.13
2022-10-04T12:06:08.432Z,51.06
2022-10-04T12:09:06.108Z,51.67
2022-10-04T12:12:08.456Z,52.41
2022-10-04T12:14:54.701Z,51.81
2022-10-04T12:17:41.199Z,52.38
2022-10-04T12:20:40.644Z,52.03
2022-10-04T12:23:34.449Z,52.48
2022-10-04T12:26:34.051Z,52.99
2022-10-04T12:29:10.558Z,52.06
2022-10-04T12:31:43.249Z,51.84
2022-10-04T12:34:16.812Z,48.86
2022-10-04T12:37:26.027Z,48.39
2022-10-04T12:40:03.613Z,48.08
2022-10-04T12:42:47.061Z,47.51
2022-10-04T12:45:23.633Z,46.63
2022-10-04T12:48:33.160Z,47.69
2022-10-04T12:51:38.381Z,48.11
2022-10-04T12:54:26.658Z,48.62
2022-10-04T12:57:33.405Z,50.66
2022-10-04T13:00:19.525Z,50.56
2022-10-04T13:03:33.666Z,50.88
2022-10-04T13:06:06.965Z,52.22
2022-10-04T13:08:40.363Z,52.65
2022-10-04T13:11:07.925Z,53.30
2022-10-04T13:13:53.320Z,52.98
2022-10-04T13:19:35.650Z,54.11
2022-10-04T13:22:06.608Z,54.56
2022-10-04T13:24:56.941Z,54.52
2022-10-04T13:27:51.145Z,56.35
2022-10-04T13:30:23.713Z,56.36
2022-10-04T13:33:14.351Z,56.60
2022-10-04T13:35:58.251Z,56.52
2022-10-04T13:38:59.447Z,57.50
2022-10-04T13:41:58.033Z,57.94
2022-10-04T13:44:47.467Z,57.81
2022-10-04T13:47:34.468Z,58.07
2022-10-04T13:50:09.779Z,58.18
2022-10-04T13:53:08.569Z,58.51
2022-10-04T13:56:08.708Z,58.79
2022-10-04T13:58:39.352Z,58.96
2022-10-04T14:01:33.247Z,58.89
2022-10-04T14:04:27.200Z,58.71
2022-10-04T14:07:17.640Z,58.91
2022-10-04T14:10:17.032Z,58.25
2022-10-04T14:12:56.246Z,58.92
2022-10-04T14:15:42.524Z,58.92
2022-10-04T14:18:47.603Z,59.48
2022-10-04T14:22:03.970Z,59.62
2022-10-04T14:25:08.727Z,59.14
2022-10-04T14:28:14.941Z,58.47
2022-10-04T14:31:02.081Z,59.21
2022-10-04T14:34:14.589Z,59.33
2022-10-04T14:36:56.996Z,60.00
2022-10-04T14:40:01.845Z,60.04
2022-10-04T14:43:15.153Z,60.61
2022-10-04T14:45:55.005Z,60.42
2022-10-04T14:48:43.936Z,60.78
2022-10-04T14:51:29.564Z,61.78
2022-10-04T14:54:10.617Z,61.89
2022-10-04T14:56:58.263Z,63.23
2022-10-04T14:59:36.056Z,63.82
2022-10-04T15:02:03.835Z,63.88
2022-10-04T15:05:12.531Z,64.11
2022-10-04T15:07:49.362Z,64.44
2022-10-04T15:10:24.745Z,64.04
2022-10-04T15:13:21.691Z,64.68
2022-10-04T15:15:55.121Z,64.98
2022-10-04T15:18:47.095Z,65.65
2022-10-04T15:21:44.692Z,66.12
2022-10-04T15:24:18.678Z,66.17
2022-10-04T15:27:20.324Z,67.36
2022-10-04T15:29:52.304Z,67.49
2022-10-04T15:32:24.452Z,67.90
2022-10-04T15:35:14.150Z,67.89
2022-10-04T15:37:48.768Z,68.12
2022-10-04T15:40:22.374Z,68.50
2022-10-04T15:43:15.386Z,68.70
2022-10-04T15:46:09.730Z,69.44
2022-10-04T15:48:51.910Z,69.61
2022-10-04T15:51:19.552Z,69.97
2022-10-04T15:54:26.436Z,70.16
2022-10-04T15:57:24.217Z,70.65
2022-10-04T16:00:29.054Z,70.53
2022-10-04T16:03:17.913Z,70.68
2022-10-04T16:06:20.488Z,70.68
2022-10-04T16:09:18.752Z,71.00
2022-10-04T16:12:20.678Z,71.16
2022-10-04T16:15:22.162Z,71.20
2022-10-04T16:17:59.279Z,70.90
2022-10-04T16:20:56.265Z,71.55
2022-10-04T16:23:28.541Z,71.38
2022-10-04T16:25:57.831Z,71.27
2022-10-04T16:28:44.061Z,71.08
2022-10-04T16:31:23.410Z,71.05
2022-10-04T16:34:03.118Z,72.18
2022-10-04T16:36:43.393Z,73.98
2022-10-04T16:39:30.202Z,75.74
2022-10-04T16:42:04.520Z,76.55
2022-10-04T16:44:53.946Z,77.63
2022-10-04T16:47:47.733Z,78.45
2022-10-04T16:50:36.423Z,79.45
2022-10-04T16:53:21.220Z,79.73
2022-10-04T16:55:53.464Z,80.35
2022-10-04T16:58:27.203Z,80.83
2022-10-04T17:01:24.099Z,81.81
2022-10-04T17:04:03.724Z,82.07
2022-10-04T17:06:37.864Z,83.30
2022-10-04T17:09:15.667Z,83.89
2022-10-04T17:12:06.139Z,84.84
2022-10-04T17:14:39.842Z,85.30
2022-10-04T17:17:40.078Z,85.89
2022-10-04T17:20:41.105Z,86.52
2022-10-04T17:23:43.992Z,86.97
2022-10-04T17:26:17.494Z,87.55
2022-10-04T17:29:22.149Z,88.90
2022-10-04T17:32:08.214Z,88.96
2022-10-04T17:34:50.242Z,88.89
2022-10-04T17:37:17.929Z,89.17
2022-10-04T17:40:03.080Z,90.60
2022-10-04T17:42:56.893Z,90.41
2022-10-04T17:45:56.871Z,89.92
2022-10-04T17:48:48.163Z,90.42
2022-10-04T17:51:52.502Z,90.43
2022-10-04T17:54:51.492Z,90.52
2022-10-04T17:57:25.984Z,91.14
2022-10-04T18:00:18.038Z,91.13
2022-10-04T18:03:01.084Z,91.92
2022-10-04T18:05:41.414Z,92.12
2022-10-04T18:08:27.094Z,92.77
2022-10-04T18:10:58.854Z,92.38
2022-10-04T18:13:37.755Z,92.65
2022-10-04T18:16:23.686Z,93.71
2022-10-04T18:18:51.433Z,93.02
2022-10-04T18:21:30.536Z,93.30
2022-10-04T18:23:59.249Z,93.77
2022-10-04T18:26:32.347Z,94.08
2022-10-04T18:29:01.406Z,95.22
2022-10-04T18:31:30.390Z,95.03
2022-10-04T18:34:18.275Z,94.83
2022-10-04T18:36:53.591Z,94.67
2022-10-04T18:39:22.970Z,94.56
2022-10-04T18:41:58.235Z,93.38
2022-10-04T18:44:31.227Z,90.88
2022-10-04T18:47:00.040Z,89.10
2022-10-04T18:49:29.618Z,89.13
2022-10-04T18:52:12.666Z,88.48
2022-10-04T18:54:49.055Z,88.38
2022-10-04T18:57:32.015Z,88.33
2022-10-04T19:00:31.124Z,89.01
2022-10-04T19:03:31.334Z,89.00
2022-10-04T19:06:24.801Z,88.46
2022-10-04T19:09:04.521Z,88.39
2022-10-04T19:11:39.457Z,88.59
2022-10-04T19:14:25.884Z,87.67
2022-10-04T19:17:03.371Z,87.75
2022-10-04T19:19:42.368Z,87.81
2022-10-04T19:22:16.093Z,87.57
2022-10-04T19:25:22.375Z,87.52
2022-10-04T19:28:00.944Z,87.34
2022-10-04T19:30:54.629Z,87.12
2022-10-04T19:33:25.980Z,86.63
2022-10-04T19:35:56.371Z,87.24
2022-10-04T19:38:51.809Z,87.00
2022-10-04T19:41:35.070Z,86.89
2022-10-04T19:44:11.426Z,86.91
2022-10-04T19:46:43.908Z,86.64
2022-10-04T19:49:19.241Z,86.68
2022-10-04T19:51:52.326Z,87.26
2022-10-04T19:54:29.500Z,86.89
2022-10-04T19:56:57.881Z,86.57
2022-10-04T19:59:41.647Z,86.67
2022-10-04T20:02:12.964Z,86.79
2022-10-04T20:04:42.447Z,86.41
2022-10-04T20:07:27.629Z,86.10
2022-10-04T20:09:56.435Z,85.74
2022-10-04T20:12:37.921Z,85.39
2022-10-04T20:15:17.703Z,85.24
2022-10-04T20:17:48.061Z,84.29
2022-10-04T20:20:38.484Z,83.85
2022-10-04T20:23:09.492Z,83.90
2022-10-04T20:25:46.289Z,83.81
2022-10-04T20:28:26.597Z,83.36
2022-10-04T20:31:00.046Z,84.53
2022-10-04T20:33:33.956Z,83.80
2022-10-04T20:36:11.587Z,82.83
2022-10-04T20:38:46.145Z,82.30
2022-10-04T20:41:29.319Z,82.07
2022-10-04T20:44:04.200Z,82.45
2022-10-04T20:46:38.387Z,82.39
2022-10-04T20:49:14.736Z,83.01
2022-10-04T20:51:49.757Z,83.33
2022-10-04T20:54:19.046Z,84.09
2022-10-04T20:56:48.159Z,83.88
2022-10-04T20:59:16.941Z,84.47
2022-10-04T21:02:00.912Z,84.02
2022-10-04T21:04:33.270Z,83.95
2022-10-04T21:07:06.153Z,83.72
2022-10-04T21:09:35.688Z,83.34
2022-10-04T21:12:05.632Z,82.86
2022-10-04T21:14:37.947Z,82.73
2022-10-04T21:17:28.403Z,82.04
2022-10-04T21:19:57.282Z,81.29
2022-10-04T21:22:31.089Z,80.83
2022-10-04T21:24:59.968Z,80.85
2022-10-04T21:27:28.687Z,81.04
2022-10-04T21:29:56.933Z,80.84
2022-10-04T21:32:25.187Z,80.36
2022-10-04T21:34:54.466Z,78.67
2022-10-04T21:37:24.523Z,78.80
2022-10-04T21:39:52.186Z,78.48
2022-10-04T21:42:19.953Z,78.57
2022-10-04T21:44:47.821Z,78.02
2022-10-04T21:47:15.867Z,78.33
2022-10-04T21:49:43.645Z,77.47
2022-10-04T21:52:11.522Z,77.55
2022-10-04T21:54:39.169Z,77.65
2022-10-04T21:57:07.342Z,76.85
2022-10-04T21:59:35.085Z,77.39
2022-10-04T22:02:02.903Z,77.67
2022-10-04T22:04:30.963Z,78.11
2022-10-04T22:06:58.577Z,77.96
2022-10-04T22:09:26.573Z,77.95
2022-10-04T22:11:54.338Z,78.63
2022-10-04T22:14:21.992Z,78.24
2022-10-04T22:16:50.395Z,78.76
2022-10-04T22:19:18.643Z,78.82
2022-10-04T22:21:46.728Z,78.48
2022-10-04T22:24:17.125Z,78.60
2022-10-04T22:26:45.062Z,78.80
2022-10-04T22:29:14.002Z,78.83
2022-10-04T22:31:44.103Z,79.58
2022-10-04T22:34:16.794Z,79.12
2022-10-04T22:36:44.731Z,79.63
2022-10-04T22:39:17.312Z,79.64
2022-10-04T22:41:48.693Z,79.65
2022-10-04T22:44:19.122Z,79.94
2022-10-04T22:46:52.198Z,80.03
2022-10-04T22:49:25.602Z,80.30
2022-10-04T22:51:55.121Z,80.52
2022-10-04T22:54:28.103Z,80.54
2022-10-04T22:56:56.623Z,80.87
2022-10-04T22:59:33.766Z,81.45
2022-10-04T23:02:02.272Z,81.50
2022-10-04T23:04:30.109Z,81.51
2022-10-04T23:06:58.445Z,81.92
2022-10-04T23:09:26.539Z,81.86
2022-10-04T23:11:54.191Z,82.12
2022-10-04T23:14:21.948Z,82.56
2022-10-04T23:16:50.751Z,83.07
2022-10-04T23:19:21.675Z,83.38
2022-10-04T23:21:52.712Z,82.82
2022-10-04T23:24:21.800Z,82.36
2022-10-04T23:26:53.144Z,82.96
2022-10-04T23:29:27.869Z,82.42
2022-10-04T23:31:55.886Z,82.08
2022-10-04T23:34:33.553Z,82.14
2022-10-04T23:37:01.197Z,82.32
2022-10-04T23:39:31.364Z,82.53
2022-10-04T23:42:00.633Z,83.06
2022-10-04T23:44:35.578Z,83.43
2022-10-04T23:47:03.512Z,84.00
2022-10-04T23:49:31.292Z,83.64
2022-10-04T23:52:01.204Z,83.55
2022-10-04T23:54:29.079Z,83.64
2022-10-04T23:56:57.144Z,84.07
2022-10-04T23:59:24.781Z,83.71
